Time;durP1;ratioP1;P1;durP2;ratioP2;P2;SDS_P1;SDS_P2;PMS_P1;PMS_P2;Temp;Humidity;BMP_temperature;BMP_pressure;BME280_temperature;BME280_humidity;BME280_pressure;Samples;Min_cycle;Max_cycle;Signal;HPM_P1;HPM_P2
2021/04/06 00:02:21;;;;;;;10.27;1.33;;;;;;;;;;4331001;33;20136;-77
2021/04/06 00:04:48;;;;;;;13.30;2.13;;;;;;;;;;4341552;33;20159;-76
2021/04/06 00:07:14;;;;;;;12.30;2.17;;;;;;;;;;4330786;33;20167;-76
2021/04/06 00:09:40;;;;;;;9.27;1.83;;;;;;;;;;4331015;33;20158;-76
2021/04/06 00:12:07;;;;;;;8.80;2.10;;;;;;;;;;4331214;33;20199;-76
2021/04/06 00:14:33;;;;;;;17.50;2.17;;;;;;;;;;4330990;33;20218;-76
2021/04/06 00:17:06;;;;;;;17.00;2.70;;;;;;;;;;4330774;33;20427;-76
2021/04/06 00:19:32;;;;;;;12.70;1.70;;;;;;;;;;4331405;33;20178;-76
2021/04/06 00:22:00;;;;;;;13.57;2.23;;;;;;;;;;4330913;33;20183;-76
2021/04/06 00:24:27;;;;;;;9.63;2.43;;;;;;;;;;4330890;33;20167;-76
2021/04/06 00:26:53;;;;;;;9.50;1.80;;;;;;;;;;4330575;33;20140;-76
2021/04/06 00:29:19;;;;;;;5.60;1.40;;;;;;;;;;4330538;33;20194;-78
2021/04/06 00:31:46;;;;;;;9.07;1.50;;;;;;;;;;4331147;33;20612;-75
2021/04/06 00:34:25;;;;;;;6.77;1.73;;;;;;;;;;4330986;33;20143;-75
2021/04/06 00:37:40;;;;;;;10.03;1.73;;;;;;;;;;4329607;33;20152;-75
2021/04/06 00:39:40;;;;;;;10.97;2.43;;;;;;;;;;4327712;33;20164;-75
2021/04/06 00:42:33;;;;;;;9.20;1.43;;;;;;;;;;4330164;33;20166;-74
2021/04/06 00:45:03;;;;;;;11.83;2.10;;;;;;;;;;4330945;33;20135;-74
2021/04/06 00:47:29;;;;;;;16.60;2.17;;;;;;;;;;4329007;33;20651;-74
2021/04/06 00:49:55;;;;;;;11.40;1.90;;;;;;;;;;4330014;33;20156;-75
2021/04/06 00:52:21;;;;;;;11.10;1.73;;;;;;;;;;4329598;33;20158;-75
2021/04/06 00:54:54;;;;;;;13.73;2.07;;;;;;;;;;4330267;33;20549;-75
2021/04/06 00:57:50;;;;;;;16.87;2.50;;;;;;;;;;4330847;33;20131;-75
2021/04/06 01:00:24;;;;;;;12.77;1.90;;;;;;;;;;4330728;33;20131;-75
2021/04/06 01:03:19;;;;;;;10.50;2.00;;;;;;;;;;4331226;33;20155;-76
2021/04/06 01:06:07;;;;;;;10.30;2.10;;;;;;;;;;4320854;33;20222;-76
2021/04/06 01:08:45;;;;;;;12.83;2.20;;;;;;;;;;4316876;33;20183;-76
2021/04/06 01:11:47;;;;;;;11.53;2.03;;;;;;;;;;4316477;33;20132;-76
2021/04/06 01:15:02;;;;;;;15.73;2.30;;;;;;;;;;4315616;33;20593;-76
2021/04/06 01:17:14;;;;;;;14.87;2.27;;;;;;;;;;4316763;33;20195;-76
2021/04/06 01:20:05;;;;;;;13.33;2.40;;;;;;;;;;4318821;33;20189;-75
2021/04/06 01:22:37;;;;;;;12.63;1.80;;;;;;;;;;4315093;33;20191;-76
2021/04/06 01:25:04;;;;;;;16.30;2.37;;;;;;;;;;4333064;33;20143;-75
2021/04/06 01:27:29;;;;;;;18.83;2.07;;;;;;;;;;4331909;33;20207;-76
2021/04/06 01:29:56;;;;;;;18.17;3.30;;;;;;;;;;4332892;33;20190;-76
2021/04/06 01:32:43;;;;;;;10.97;1.87;;;;;;;;;;4332981;33;20140;-76
2021/04/06 01:35:09;;;;;;;11.47;2.37;;;;;;;;;;4333076;33;20175;-76
2021/04/06 01:37:34;;;;;;;13.17;2.07;;;;;;;;;;4333001;33;20136;-76
2021/04/06 01:40:02;;;;;;;11.77;2.00;;;;;;;;;;4332582;33;20147;-76
2021/04/06 01:42:31;;;;;;;10.03;1.90;;;;;;;;;;4332873;33;20556;-76
2021/04/06 01:44:58;;;;;;;13.03;1.63;;;;;;;;;;4333039;33;20159;-76
2021/04/06 01:47:25;;;;;;;9.30;1.70;;;;;;;;;;4332692;33;20206;-77
2021/04/06 01:49:51;;;;;;;11.03;2.03;;;;;;;;;;4332578;33;20174;-76
2021/04/06 01:52:17;;;;;;;8.73;1.90;;;;;;;;;;4332935;33;20148;-76
2021/04/06 01:54:53;;;;;;;14.57;2.00;;;;;;;;;;4332917;33;20481;-74
2021/04/06 01:57:25;;;;;;;12.30;2.03;;;;;;;;;;4332784;33;20135;-74
2021/04/06 01:59:56;;;;;;;16.57;2.30;;;;;;;;;;4333431;33;20445;-75
2021/04/06 02:02:26;;;;;;;10.40;1.90;;;;;;;;;;4332482;33;20183;-75
2021/04/06 02:04:58;;;;;;;10.43;1.57;;;;;;;;;;4332744;33;20166;-75
2021/04/06 02:07:26;;;;;;;12.03;1.83;;;;;;;;;;4332143;33;20175;-75
2021/04/06 02:09:51;;;;;;;9.73;1.90;;;;;;;;;;4332697;33;20139;-75
2021/04/06 02:12:19;;;;;;;10.80;1.53;;;;;;;;;;4332591;33;20165;-75
2021/04/06 02:14:44;;;;;;;9.70;1.77;;;;;;;;;;4331641;33;20164;-76
2021/04/06 02:17:16;;;;;;;14.27;1.60;;;;;;;;;;4332839;33;20158;-76
2021/04/06 02:19:43;;;;;;;11.37;1.80;;;;;;;;;;4332803;33;20124;-76
2021/04/06 02:22:47;;;;;;;7.50;1.50;;;;;;;;;;4333059;33;20569;-76
2021/04/06 02:25:16;;;;;;;11.80;1.63;;;;;;;;;;4321426;33;20191;-75
2021/04/06 02:27:41;;;;;;;8.53;1.30;;;;;;;;;;4318379;33;20167;-76
2021/04/06 02:30:09;;;;;;;8.03;1.67;;;;;;;;;;4318001;33;20491;-75
2021/04/06 02:32:35;;;;;;;9.73;1.67;;;;;;;;;;4317661;33;20227;-75
2021/04/06 02:35:07;;;;;;;5.17;1.50;;;;;;;;;;4317329;33;20155;-74
2021/04/06 02:37:34;;;;;;;6.37;1.30;;;;;;;;;;4318304;33;20186;-73
2021/04/06 02:40:09;;;;;;;5.57;1.20;;;;;;;;;;4318835;33;20139;-73
2021/04/06 02:42:35;;;;;;;5.07;1.07;;;;;;;;;;4323005;33;20598;-74
2021/04/06 02:45:00;;;;;;;8.77;1.20;;;;;;;;;;4332311;33;20170;-74
2021/04/06 02:47:26;;;;;;;7.43;1.47;;;;;;;;;;4332555;33;20537;-74
2021/04/06 02:49:52;;;;;;;7.90;1.50;;;;;;;;;;4332265;33;20206;-76
2021/04/06 02:52:17;;;;;;;7.33;1.60;;;;;;;;;;4331835;33;20158;-75
2021/04/06 02:54:43;;;;;;;9.93;1.67;;;;;;;;;;4332299;33;20132;-76
2021/04/06 02:57:27;;;;;;;7.87;1.37;;;;;;;;;;4332302;33;20538;-76
2021/04/06 02:59:56;;;;;;;14.27;1.53;;;;;;;;;;4332968;33;20136;-76
2021/04/06 03:02:24;;;;;;;9.00;1.50;;;;;;;;;;4331068;33;20218;-75
2021/04/06 03:04:49;;;;;;;11.07;1.47;;;;;;;;;;4332077;33;20562;-75
2021/04/06 03:07:25;;;;;;;8.50;1.77;;;;;;;;;;4331849;33;20166;-75
2021/04/06 03:09:53;;;;;;;6.73;1.53;;;;;;;;;;4332433;33;20525;-76
2021/04/06 03:12:19;;;;;;;13.30;1.83;;;;;;;;;;4331632;33;20187;-75
2021/04/06 03:14:45;;;;;;;16.10;2.43;;;;;;;;;;4332022;33;20136;-75
2021/04/06 03:17:10;;;;;;;12.60;1.67;;;;;;;;;;4331798;33;20136;-75
2021/04/06 03:19:37;;;;;;;12.30;1.80;;;;;;;;;;4331195;33;20181;-76
2021/04/06 03:22:05;;;;;;;8.60;1.60;;;;;;;;;;4331484;33;20143;-76
2021/04/06 03:24:30;;;;;;;12.20;1.90;;;;;;;;;;4331923;33;20128;-75
2021/04/06 03:27:06;;;;;;;7.57;1.80;;;;;;;;;;4331896;33;20162;-75
2021/04/06 03:29:31;;;;;;;8.60;1.67;;;;;;;;;;4332286;33;20150;-75
2021/04/06 03:31:56;;;;;;;16.20;2.23;;;;;;;;;;4331690;33;20135;-75
2021/04/06 03:34:22;;;;;;;11.43;1.80;;;;;;;;;;4331540;33;20132;-75
2021/04/06 03:36:47;;;;;;;14.93;2.00;;;;;;;;;;4320439;33;20584;-74
2021/04/06 03:39:13;;;;;;;10.97;2.03;;;;;;;;;;4326237;33;20522;-74
2021/04/06 03:41:39;;;;;;;5.17;1.40;;;;;;;;;;4330896;33;20570;-74
2021/04/06 03:44:06;;;;;;;9.60;1.60;;;;;;;;;;4331107;33;20172;-75
2021/04/06 03:46:31;;;;;;;8.10;2.00;;;;;;;;;;4331846;33;20132;-74
2021/04/06 03:49:15;;;;;;;11.80;2.10;;;;;;;;;;4331787;33;20414;-74
2021/04/06 03:51:47;;;;;;;3.90;1.00;;;;;;;;;;4331170;33;20276;-75
2021/04/06 03:54:31;;;;;;;8.87;1.10;;;;;;;;;;4331268;33;20140;-75
2021/04/06 03:56:57;;;;;;;7.93;1.37;;;;;;;;;;4331664;33;20205;-74
2021/04/06 03:59:26;;;;;;;7.97;1.53;;;;;;;;;;4331508;33;20144;-75
2021/04/06 04:01:51;;;;;;;13.63;1.63;;;;;;;;;;4331009;33;20202;-74
2021/04/06 04:04:20;;;;;;;5.43;1.07;;;;;;;;;;4318833;33;20166;-75
2021/04/06 04:06:45;;;;;;;5.40;1.30;;;;;;;;;;4331364;33;20226;-74
2021/04/06 04:09:10;;;;;;;8.00;1.17;;;;;;;;;;4321870;33;20182;-75
2021/04/06 04:11:36;;;;;;;5.40;1.07;;;;;;;;;;4316667;33;20560;-75
2021/04/06 04:14:01;;;;;;;6.87;1.30;;;;;;;;;;4316378;33;20132;-75
2021/04/06 04:16:27;;;;;;;8.10;1.53;;;;;;;;;;4316082;33;20600;-75
2021/04/06 04:18:52;;;;;;;8.87;1.20;;;;;;;;;;4315052;33;20156;-75
2021/04/06 04:21:17;;;;;;;13.13;1.40;;;;;;;;;;4325229;33;20489;-74
2021/04/06 04:23:43;;;;;;;7.43;1.67;;;;;;;;;;4330857;33;20195;-74
2021/04/06 04:26:08;;;;;;;5.33;1.50;;;;;;;;;;4331618;33;20272;-75
2021/04/06 04:28:34;;;;;;;10.20;1.40;;;;;;;;;;4330968;33;20147;-76
2021/04/06 04:31:05;;;;;;;6.17;1.40;;;;;;;;;;4331397;33;20124;-76
2021/04/06 04:33:30;;;;;;;6.23;1.30;;;;;;;;;;4330704;33;20116;-76
2021/04/06 04:35:56;;;;;;;5.97;1.57;;;;;;;;;;4330638;33;20158;-75
2021/04/06 04:38:21;;;;;;;7.57;1.23;;;;;;;;;;4330757;33;20128;-75
2021/04/06 04:40:46;;;;;;;8.37;1.73;;;;;;;;;;4330759;33;20533;-75
2021/04/06 04:43:12;;;;;;;10.60;1.50;;;;;;;;;;4330745;33;20132;-75
2021/04/06 04:45:38;;;;;;;7.90;1.20;;;;;;;;;;4330726;33;20524;-75
2021/04/06 04:48:03;;;;;;;8.60;1.60;;;;;;;;;;4331092;33;20127;-75
2021/04/06 04:50:29;;;;;;;11.80;1.70;;;;;;;;;;4330645;33;20178;-76
2021/04/06 04:52:54;;;;;;;10.67;1.23;;;;;;;;;;4330181;33;20861;-75
2021/04/06 04:55:20;;;;;;;8.63;1.43;;;;;;;;;;4330325;33;20132;-75
2021/04/06 04:57:45;;;;;;;15.67;2.40;;;;;;;;;;4330313;33;20175;-76
2021/04/06 05:00:11;;;;;;;11.20;1.47;;;;;;;;;;4330138;33;20621;-76
2021/04/06 05:02:36;;;;;;;5.83;1.73;;;;;;;;;;4329957;33;20501;-75
2021/04/06 05:05:02;;;;;;;9.60;1.60;;;;;;;;;;4330720;33;20204;-77
2021/04/06 05:07:27;;;;;;;14.73;1.43;;;;;;;;;;4331071;33;20132;-75
2021/04/06 05:09:52;;;;;;;6.97;1.40;;;;;;;;;;4330539;33;20132;-75
2021/04/06 05:12:18;;;;;;;8.67;1.97;;;;;;;;;;4330573;33;20191;-78
2021/04/06 05:14:45;;;;;;;7.20;1.63;;;;;;;;;;4329279;33;20152;-75
2021/04/06 05:17:10;;;;;;;7.97;1.53;;;;;;;;;;4331038;33;20137;-77
2021/04/06 05:19:35;;;;;;;9.13;1.63;;;;;;;;;;4330653;33;20555;-75
2021/04/06 05:22:00;;;;;;;11.57;1.43;;;;;;;;;;4330212;33;20124;-74
2021/04/06 05:24:26;;;;;;;7.73;1.60;;;;;;;;;;4328910;33;20355;-73
2021/04/06 05:26:51;;;;;;;7.80;1.87;;;;;;;;;;4330173;33;20140;-75
2021/04/06 05:29:16;;;;;;;7.43;1.70;;;;;;;;;;4331321;33;20132;-76
2021/04/06 05:31:41;;;;;;;5.60;1.40;;;;;;;;;;4329692;33;20139;-75
2021/04/06 05:34:16;;;;;;;8.50;1.53;;;;;;;;;;4330200;33;20158;-75
2021/04/06 05:36:41;;;;;;;8.43;1.30;;;;;;;;;;4330446;33;20127;-74
2021/04/06 05:39:07;;;;;;;10.43;1.30;;;;;;;;;;4328857;33;20156;-74
2021/04/06 05:41:33;;;;;;;7.17;1.40;;;;;;;;;;4330112;33;20489;-75
2021/04/06 05:44:00;;;;;;;9.53;1.37;;;;;;;;;;4329799;33;20219;-74
2021/04/06 05:46:28;;;;;;;10.07;1.30;;;;;;;;;;4330012;33;20642;-75
2021/04/06 05:48:54;;;;;;;10.20;1.40;;;;;;;;;;4331150;33;20136;-74
2021/04/06 05:51:20;;;;;;;9.13;1.37;;;;;;;;;;4330256;33;20207;-75
2021/04/06 05:53:45;;;;;;;5.60;1.17;;;;;;;;;;4328429;33;20222;-74
2021/04/06 05:56:10;;;;;;;7.87;1.70;;;;;;;;;;4316496;33;20192;-75
2021/04/06 05:58:36;;;;;;;8.47;1.20;;;;;;;;;;4329068;33;20166;-74
2021/04/06 06:01:01;;;;;;;7.83;1.47;;;;;;;;;;4325945;33;20549;-75
2021/04/06 06:03:32;;;;;;;4.90;1.20;;;;;;;;;;4330488;33;20212;-74
2021/04/06 06:05:58;;;;;;;4.20;1.40;;;;;;;;;;4332187;33;20137;-73
2021/04/06 06:08:24;;;;;;;4.67;1.40;;;;;;;;;;4331355;33;20140;-75
2021/04/06 06:10:59;;;;;;;9.07;1.77;;;;;;;;;;4331885;33;20199;-74
2021/04/06 06:13:24;;;;;;;3.20;1.03;;;;;;;;;;4331983;33;20210;-74
2021/04/06 06:16:09;;;;;;;7.07;1.53;;;;;;;;;;4332248;33;20476;-76
2021/04/06 06:18:50;;;;;;;15.47;2.00;;;;;;;;;;4332643;33;20187;-74
2021/04/06 06:21:16;;;;;;;13.30;1.77;;;;;;;;;;4317789;33;20164;-75
2021/04/06 06:23:47;;;;;;;7.03;1.40;;;;;;;;;;4317430;33;20131;-75
2021/04/06 06:26:18;;;;;;;5.73;1.57;;;;;;;;;;4326517;33;20194;-75
2021/04/06 06:29:03;;;;;;;13.80;1.97;;;;;;;;;;4320901;33;20217;-75
2021/04/06 06:31:34;;;;;;;9.40;1.50;;;;;;;;;;4330710;33;20174;-75
2021/04/06 06:33:59;;;;;;;6.97;1.60;;;;;;;;;;4332333;33;20617;-75
2021/04/06 06:36:25;;;;;;;7.23;1.43;;;;;;;;;;4331997;33;20187;-75
2021/04/06 06:38:50;;;;;;;9.27;1.70;;;;;;;;;;4331190;33;20579;-74
2021/04/06 06:41:17;;;;;;;9.40;1.37;;;;;;;;;;4325791;33;20194;-72
2021/04/06 06:43:44;;;;;;;5.23;1.30;;;;;;;;;;4331813;33;20449;-74
2021/04/06 06:46:25;;;;;;;10.87;1.87;;;;;;;;;;4331122;33;20148;-74
2021/04/06 06:49:16;;;;;;;7.23;1.57;;;;;;;;;;4330856;33;20184;-74
2021/04/06 06:51:44;;;;;;;6.90;1.30;;;;;;;;;;4323301;33;20639;-74
2021/04/06 06:54:09;;;;;;;11.53;1.50;;;;;;;;;;4331057;33;20214;-76
2021/04/06 06:56:58;;;;;;;8.27;1.40;;;;;;;;;;4331601;33;20202;-75
2021/04/06 06:59:36;;;;;;;3.93;1.03;;;;;;;;;;4330643;33;20175;-73
2021/04/06 07:02:19;;;;;;;7.20;1.47;;;;;;;;;;4331644;33;20166;-73
2021/04/06 07:04:45;;;;;;;7.20;1.57;;;;;;;;;;4331283;33;20214;-73
2021/04/06 07:07:10;;;;;;;7.00;0.97;;;;;;;;;;4330875;33;20608;-73
2021/04/06 07:09:36;;;;;;;6.00;1.17;;;;;;;;;;4331429;33;20158;-74
2021/04/06 07:12:03;;;;;;;9.93;1.77;;;;;;;;;;4331626;33;20215;-73
2021/04/06 07:14:32;;;;;;;6.47;1.33;;;;;;;;;;4331252;33;20140;-75
2021/04/06 07:16:59;;;;;;;9.20;1.20;;;;;;;;;;4330319;33;20250;-75
2021/04/06 07:19:40;;;;;;;7.40;1.27;;;;;;;;;;4331233;33;20244;-74
2021/04/06 07:22:06;;;;;;;5.40;1.23;;;;;;;;;;4330611;33;20209;-74
2021/04/06 07:24:45;;;;;;;8.63;1.93;;;;;;;;;;4330929;33;20143;-74
2021/04/06 07:27:17;;;;;;;4.90;1.70;;;;;;;;;;4317015;33;20180;-73
2021/04/06 07:29:43;;;;;;;9.03;1.47;;;;;;;;;;4329229;33;20171;-73
2021/04/06 07:32:13;;;;;;;11.30;1.77;;;;;;;;;;4329884;33;20211;-73
2021/04/06 07:34:39;;;;;;;13.30;2.30;;;;;;;;;;4326546;33;20179;-74
2021/04/06 07:37:05;;;;;;;6.47;1.23;;;;;;;;;;4319481;33;20219;-73
2021/04/06 07:39:31;;;;;;;6.57;1.30;;;;;;;;;;4316734;33;20137;-75
2021/04/06 07:41:56;;;;;;;9.63;1.10;;;;;;;;;;4320511;33;20202;-73
2021/04/06 07:44:21;;;;;;;8.27;1.40;;;;;;;;;;4329779;33;20822;-74
2021/04/06 07:46:48;;;;;;;5.67;1.27;;;;;;;;;;4330072;33;20612;-73
2021/04/06 07:49:16;;;;;;;11.10;1.50;;;;;;;;;;4330889;33;20215;-70
2021/04/06 07:51:47;;;;;;;9.43;1.80;;;;;;;;;;4330283;33;20156;-67
2021/04/06 07:54:14;;;;;;;9.20;1.47;;;;;;;;;;4330615;33;20140;-73
2021/04/06 07:56:45;;;;;;;8.10;1.50;;;;;;;;;;4331828;33;20170;-72
2021/04/06 07:59:19;;;;;;;9.87;1.70;;;;;;;;;;4328917;33;20190;-72
2021/04/06 08:01:46;;;;;;;8.83;1.57;;;;;;;;;;4329871;33;20577;-74
2021/04/06 08:04:11;;;;;;;9.17;1.40;;;;;;;;;;4330348;33;20141;-73
2021/04/06 08:06:44;;;;;;;10.50;1.70;;;;;;;;;;4330118;33;21015;-74
2021/04/06 08:12:25;;;;;;;4.23;1.10;;;;;;;;;;4301967;33;20664;-68
2021/04/06 08:15:08;;;;;;;8.27;1.73;;;;;;;;;;4324981;33;20152;-73
2021/04/06 08:17:33;;;;;;;7.97;1.57;;;;;;;;;;4306126;33;20160;-73
2021/04/06 08:20:55;;;;;;;11.40;1.43;;;;;;;;;;4330252;33;20262;-73
2021/04/06 08:23:39;;;;;;;4.33;1.03;;;;;;;;;;4269879;33;20173;-72
2021/04/06 08:26:04;;;;;;;6.63;0.93;;;;;;;;;;4287037;33;20152;-73
2021/04/06 08:28:44;;;;;;;2.23;1.03;;;;;;;;;;4313943;33;20185;-72
2021/04/06 08:31:14;;;;;;;5.80;1.10;;;;;;;;;;4331390;33;20148;-74
2021/04/06 08:33:40;;;;;;;5.23;1.10;;;;;;;;;;4319365;33;20166;-73
2021/04/06 08:36:07;;;;;;;7.50;1.37;;;;;;;;;;4315340;33;20164;-73
2021/04/06 08:38:32;;;;;;;3.47;0.97;;;;;;;;;;4322304;33;20178;-73
2021/04/06 08:41:17;;;;;;;4.30;0.90;;;;;;;;;;4330217;33;20155;-72
2021/04/06 08:43:44;;;;;;;4.03;0.90;;;;;;;;;;4329900;33;20140;-72
2021/04/06 08:46:10;;;;;;;1.83;0.83;;;;;;;;;;4329484;33;20132;-73
2021/04/06 08:48:50;;;;;;;3.77;0.87;;;;;;;;;;4328361;33;20561;-73
2021/04/06 08:51:34;;;;;;;4.23;1.00;;;;;;;;;;4329564;33;20781;-73
2021/04/06 08:54:04;;;;;;;4.20;1.20;;;;;;;;;;4330130;33;20162;-72
2021/04/06 08:56:49;;;;;;;3.87;1.20;;;;;;;;;;4329481;33;20147;-73
2021/04/06 08:59:16;;;;;;;6.60;1.07;;;;;;;;;;4330130;33;20147;-73
2021/04/06 09:01:42;;;;;;;6.03;1.20;;;;;;;;;;4328196;33;20170;-74
2021/04/06 09:04:20;;;;;;;8.30;1.17;;;;;;;;;;4333245;33;20214;-73
2021/04/06 09:06:45;;;;;;;6.30;1.43;;;;;;;;;;4328486;33;20183;-73
2021/04/06 09:09:40;;;;;;;7.43;1.53;;;;;;;;;;4328913;33;20167;-74
2021/04/06 09:12:21;;;;;;;8.67;1.40;;;;;;;;;;4296825;33;20192;-74
2021/04/06 09:14:47;;;;;;;8.43;1.67;;;;;;;;;;4310558;33;20191;-74
2021/04/06 09:17:12;;;;;;;9.40;1.37;;;;;;;;;;4329290;33;20549;-74
2021/04/06 09:19:41;;;;;;;7.07;1.20;;;;;;;;;;4329828;33;20208;-75
2021/04/06 09:22:12;;;;;;;9.17;1.50;;;;;;;;;;4327208;33;20163;-74
2021/04/06 09:24:47;;;;;;;8.37;1.43;;;;;;;;;;4316180;33;20185;-72
2021/04/06 09:27:12;;;;;;;11.50;1.47;;;;;;;;;;4328385;33;20187;-74
2021/04/06 09:29:42;;;;;;;14.87;1.77;;;;;;;;;;4328581;33;20183;-74
2021/04/06 09:32:12;;;;;;;4.43;1.33;;;;;;;;;;4326124;33;20620;-74
2021/04/06 09:34:39;;;;;;;8.37;1.37;;;;;;;;;;4329146;33;20198;-74
2021/04/06 09:37:15;;;;;;;5.43;1.07;;;;;;;;;;4329779;33;20495;-74
2021/04/06 09:39:51;;;;;;;4.77;1.27;;;;;;;;;;4340622;33;20166;-72
2021/04/06 09:42:16;;;;;;;5.93;1.20;;;;;;;;;;4332283;33;20694;-76
2021/04/06 09:44:44;;;;;;;4.73;1.27;;;;;;;;;;4330932;33;20156;-75
2021/04/06 09:47:11;;;;;;;7.30;1.30;;;;;;;;;;4318256;33;20140;-74
2021/04/06 09:49:38;;;;;;;3.87;0.80;;;;;;;;;;4316319;33;20164;-75
2021/04/06 09:52:14;;;;;;;2.63;1.03;;;;;;;;;;4327363;33;20231;-75
2021/04/06 09:54:42;;;;;;;3.53;1.10;;;;;;;;;;4331015;33;20589;-75
2021/04/06 09:57:11;;;;;;;3.77;0.90;;;;;;;;;;4342670;33;20156;-73
2021/04/06 10:00:41;;;;;;;6.70;0.90;;;;;;;;;;4332371;33;20206;-76
2021/04/06 10:03:00;;;;;;;4.13;1.10;;;;;;;;;;4329248;33;20518;-75
2021/04/06 10:05:25;;;;;;;5.17;1.27;;;;;;;;;;4332379;33;20179;-75
2021/04/06 10:07:51;;;;;;;4.87;1.00;;;;;;;;;;4330399;33;20215;-74
2021/04/06 10:10:21;;;;;;;7.67;1.10;;;;;;;;;;4318231;33;20633;-71
2021/04/06 10:12:47;;;;;;;6.77;1.60;;;;;;;;;;4330354;33;20205;-74
2021/04/06 10:15:17;;;;;;;12.53;1.63;;;;;;;;;;4330535;33;20597;-76
2021/04/06 10:17:43;;;;;;;8.77;1.30;;;;;;;;;;4330061;33;20136;-75
2021/04/06 10:20:24;;;;;;;4.77;1.60;;;;;;;;;;4330454;33;20226;-75
2021/04/06 10:22:51;;;;;;;3.37;1.17;;;;;;;;;;4332074;33;20181;-76
2021/04/06 10:25:18;;;;;;;4.03;1.50;;;;;;;;;;4330188;33;20156;-75
2021/04/06 10:27:54;;;;;;;5.40;1.17;;;;;;;;;;4326554;33;20235;-75
2021/04/06 10:30:28;;;;;;;7.50;1.40;;;;;;;;;;4317632;33;20135;-76
2021/04/06 10:33:25;;;;;;;7.60;1.47;;;;;;;;;;4317849;33;20131;-76
2021/04/06 10:35:58;;;;;;;4.63;1.30;;;;;;;;;;4305440;33;20181;-76
2021/04/06 10:38:29;;;;;;;7.50;1.17;;;;;;;;;;4315816;33;20155;-77
2021/04/06 10:41:11;;;;;;;6.67;1.53;;;;;;;;;;4321180;33;20163;-78
2021/04/06 10:43:38;;;;;;;5.03;1.27;;;;;;;;;;4330050;33;20183;-75
2021/04/06 10:46:10;;;;;;;7.47;1.30;;;;;;;;;;4329459;33;20164;-77
2021/04/06 10:48:38;;;;;;;8.10;1.70;;;;;;;;;;4330165;33;20148;-76
2021/04/06 10:51:09;;;;;;;5.77;1.50;;;;;;;;;;4329797;33;20206;-75
2021/04/06 10:53:54;;;;;;;5.70;1.10;;;;;;;;;;4332104;33;20501;-75
2021/04/06 10:56:21;;;;;;;6.43;1.13;;;;;;;;;;4329308;33;20180;-76
2021/04/06 10:58:57;;;;;;;4.37;1.30;;;;;;;;;;4329558;33;20242;-75
2021/04/06 11:01:27;;;;;;;7.83;1.33;;;;;;;;;;4330298;33;20202;-76
2021/04/06 11:03:53;;;;;;;6.80;1.20;;;;;;;;;;4330131;33;20198;-75
2021/04/06 11:06:27;;;;;;;6.60;1.00;;;;;;;;;;4329818;33;20218;-74
2021/04/06 11:08:53;;;;;;;2.97;0.97;;;;;;;;;;4331751;33;20216;-74
2021/04/06 11:11:27;;;;;;;3.47;0.87;;;;;;;;;;4321020;33;20529;-77
2021/04/06 11:13:57;;;;;;;2.93;1.00;;;;;;;;;;4317463;33;20155;-76
2021/04/06 11:16:23;;;;;;;5.50;0.97;;;;;;;;;;4318197;33;20160;-76
2021/04/06 11:18:58;;;;;;;4.77;0.90;;;;;;;;;;4317695;33;20242;-75
2021/04/06 11:21:23;;;;;;;4.20;1.00;;;;;;;;;;4331533;33;20131;-75
2021/04/06 11:23:56;;;;;;;6.73;1.03;;;;;;;;;;4330440;33;20136;-75
2021/04/06 11:26:22;;;;;;;3.40;1.10;;;;;;;;;;4328900;33;20540;-74
2021/04/06 11:28:47;;;;;;;6.10;1.40;;;;;;;;;;4330751;33;20199;-74
2021/04/06 11:31:33;;;;;;;5.13;1.13;;;;;;;;;;4329396;33;20171;-75
2021/04/06 11:33:58;;;;;;;10.07;1.90;;;;;;;;;;4315883;33;20194;-75
2021/04/06 11:36:24;;;;;;;4.73;1.40;;;;;;;;;;4322623;33;20491;-75
2021/04/06 11:38:49;;;;;;;7.10;1.20;;;;;;;;;;4329752;33;20160;-75
2021/04/06 11:41:16;;;;;;;7.83;1.63;;;;;;;;;;4331016;33;20151;-74
2021/04/06 11:43:41;;;;;;;6.30;1.30;;;;;;;;;;4329303;33;20183;-75
2021/04/06 11:46:12;;;;;;;9.57;1.50;;;;;;;;;;4329537;33;20175;-75
2021/04/06 11:48:37;;;;;;;3.97;1.10;;;;;;;;;;4331160;33;20175;-75
2021/04/06 11:51:02;;;;;;;6.83;1.43;;;;;;;;;;4330509;33;20563;-75
2021/04/06 11:53:36;;;;;;;6.20;1.23;;;;;;;;;;4329212;33;20213;-76
2021/04/06 11:56:11;;;;;;;7.70;1.20;;;;;;;;;;4329351;33;20667;-74
2021/04/06 11:58:36;;;;;;;4.30;1.20;;;;;;;;;;4330820;33;20617;-75
2021/04/06 12:01:33;;;;;;;4.50;1.30;;;;;;;;;;4328110;33;20159;-77
2021/04/06 12:03:59;;;;;;;9.47;1.47;;;;;;;;;;4331632;33;20143;-75
2021/04/06 12:06:25;;;;;;;4.53;0.77;;;;;;;;;;4319232;33;20171;-76
2021/04/06 12:09:02;;;;;;;3.83;0.87;;;;;;;;;;4325512;33;20156;-76
2021/04/06 12:11:30;;;;;;;3.90;1.20;;;;;;;;;;4329633;33;20214;-77
2021/04/06 12:13:55;;;;;;;4.33;0.90;;;;;;;;;;4327757;33;20226;-76
2021/04/06 12:16:23;;;;;;;4.10;1.00;;;;;;;;;;4328634;33;20175;-75
2021/04/06 12:19:01;;;;;;;1.67;0.60;;;;;;;;;;4329621;33;20124;-75
2021/04/06 12:21:27;;;;;;;2.07;0.70;;;;;;;;;;4328859;33;20214;-75
2021/04/06 12:24:10;;;;;;;2.13;0.80;;;;;;;;;;4328734;33;20163;-75
2021/04/06 12:26:35;;;;;;;3.60;0.88;;;;;;;;;;4329008;33;21023;-76
2021/04/06 12:29:02;;;;;;;3.37;1.00;;;;;;;;;;4329376;33;20140;-76
2021/04/06 12:31:27;;;;;;;8.50;1.50;;;;;;;;;;4330084;33;20148;-75
2021/04/06 12:33:53;;;;;;;5.10;1.23;;;;;;;;;;4329305;33;20934;-76
2021/04/06 12:36:20;;;;;;;2.73;1.30;;;;;;;;;;4330450;33;20143;-75
2021/04/06 12:38:45;;;;;;;5.53;1.20;;;;;;;;;;4328053;33;20203;-75
2021/04/06 12:41:11;;;;;;;2.47;0.98;;;;;;;;;;4329283;33;20189;-74
2021/04/06 12:43:36;;;;;;;5.27;0.83;;;;;;;;;;4329251;33;20159;-75
2021/04/06 12:46:02;;;;;;;4.07;0.90;;;;;;;;;;4315947;33;20151;-75
2021/04/06 12:48:27;;;;;;;4.57;1.33;;;;;;;;;;4329321;33;20179;-76
2021/04/06 12:50:52;;;;;;;2.00;0.90;;;;;;;;;;4329528;33;20176;-75
2021/04/06 12:53:20;;;;;;;5.17;0.90;;;;;;;;;;4329302;33;20187;-76
2021/04/06 12:55:46;;;;;;;5.80;1.00;;;;;;;;;;4329530;33;20168;-75
2021/04/06 12:58:12;;;;;;;7.33;0.90;;;;;;;;;;4315808;33;20160;-75
2021/04/06 13:00:37;;;;;;;5.83;1.03;;;;;;;;;;4329733;33;20132;-75
2021/04/06 13:03:02;;;;;;;3.13;0.90;;;;;;;;;;4329241;33;20178;-75
2021/04/06 13:05:27;;;;;;;4.13;1.03;;;;;;;;;;4324194;33;20188;-75
2021/04/06 13:07:53;;;;;;;3.63;0.80;;;;;;;;;;4326224;33;20501;-75
2021/04/06 13:10:18;;;;;;;5.13;1.00;;;;;;;;;;4324110;33;20186;-76
2021/04/06 13:12:44;;;;;;;6.43;1.10;;;;;;;;;;4321818;33;20593;-75
2021/04/06 13:15:10;;;;;;;6.53;1.30;;;;;;;;;;4327204;33;20136;-77
2021/04/06 13:17:39;;;;;;;6.10;1.07;;;;;;;;;;4331375;33;20179;-76
2021/04/06 13:20:09;;;;;;;11.87;1.50;;;;;;;;;;4330606;33;20238;-73
2021/04/06 13:22:35;;;;;;;9.23;1.67;;;;;;;;;;4331801;33;20534;-72
2021/04/06 13:25:00;;;;;;;4.53;0.80;;;;;;;;;;4319072;33;20182;-74
2021/04/06 13:27:25;;;;;;;3.97;1.07;;;;;;;;;;4330783;33;20192;-74
2021/04/06 13:29:50;;;;;;;3.60;0.80;;;;;;;;;;4331206;33;20183;-74
2021/04/06 13:32:18;;;;;;;7.00;1.30;;;;;;;;;;4332518;33;20450;-75
2021/04/06 13:34:43;;;;;;;6.40;1.27;;;;;;;;;;4331947;33;20150;-73
2021/04/06 13:37:09;;;;;;;8.47;1.27;;;;;;;;;;4332249;33;20147;-72
2021/04/06 13:39:36;;;;;;;4.40;1.30;;;;;;;;;;4330466;33;20299;-74
2021/04/06 13:42:01;;;;;;;7.57;1.30;;;;;;;;;;4332237;33;20132;-75
2021/04/06 13:44:29;;;;;;;6.10;1.10;;;;;;;;;;4332296;33;20147;-74
2021/04/06 13:46:54;;;;;;;7.00;1.60;;;;;;;;;;4330359;33;20156;-75
2021/04/06 13:49:19;;;;;;;9.77;1.53;;;;;;;;;;4330613;33;20164;-75
2021/04/06 13:51:45;;;;;;;12.40;2.00;;;;;;;;;;4331677;33;20160;-74
2021/04/06 13:54:10;;;;;;;13.13;1.80;;;;;;;;;;4342220;33;20187;-73
2021/04/06 13:56:38;;;;;;;8.90;1.27;;;;;;;;;;4317336;33;20207;-73
2021/04/06 13:59:04;;;;;;;5.20;1.20;;;;;;;;;;4329493;33;20160;-76
2021/04/06 14:01:32;;;;;;;6.80;1.47;;;;;;;;;;4332590;33;20167;-75
2021/04/06 14:03:57;;;;;;;7.27;1.23;;;;;;;;;;4327249;33;20605;-75
2021/04/06 14:06:25;;;;;;;6.57;1.30;;;;;;;;;;4317258;33;20180;-74
2021/04/06 14:08:50;;;;;;;4.77;1.00;;;;;;;;;;4316458;33;20558;-75
2021/04/06 14:11:15;;;;;;;2.90;0.97;;;;;;;;;;4321715;33;20270;-74
2021/04/06 14:13:41;;;;;;;5.33;1.00;;;;;;;;;;4331012;33;20234;-74
2021/04/06 14:16:06;;;;;;;9.13;1.20;;;;;;;;;;4333165;33;20158;-75
2021/04/06 14:18:32;;;;;;;6.20;1.27;;;;;;;;;;4332048;33;20132;-74
2021/04/06 14:20:59;;;;;;;7.13;1.30;;;;;;;;;;4330335;33;20203;-74
2021/04/06 14:23:28;;;;;;;5.37;1.20;;;;;;;;;;4331936;33;20210;-73
2021/04/06 14:25:54;;;;;;;5.80;1.60;;;;;;;;;;4330160;33;20223;-74
2021/04/06 14:28:29;;;;;;;7.73;1.47;;;;;;;;;;4331579;33;20621;-74
2021/04/06 14:30:58;;;;;;;6.90;1.43;;;;;;;;;;4318179;33;20171;-75
2021/04/06 14:33:26;;;;;;;8.10;2.03;;;;;;;;;;4330780;33;20164;-75
2021/04/06 14:35:52;;;;;;;7.63;1.57;;;;;;;;;;4330864;33;20230;-74
2021/04/06 14:38:18;;;;;;;13.43;1.70;;;;;;;;;;4331676;33;20139;-72
2021/04/06 14:40:43;;;;;;;7.27;1.40;;;;;;;;;;4330101;33;20848;-75
2021/04/06 14:43:12;;;;;;;7.50;1.50;;;;;;;;;;4331555;33;20139;-75
2021/04/06 14:45:38;;;;;;;12.70;1.90;;;;;;;;;;4330230;33;20251;-73
2021/04/06 14:48:04;;;;;;;4.40;1.40;;;;;;;;;;4331395;33;20132;-73
2021/04/06 14:50:29;;;;;;;6.40;1.40;;;;;;;;;;4331213;33;20478;-75
2021/04/06 14:52:55;;;;;;;12.50;2.00;;;;;;;;;;4331763;33;20141;-74
2021/04/06 14:55:20;;;;;;;5.53;1.40;;;;;;;;;;4331249;33;20143;-73
2021/04/06 14:57:46;;;;;;;7.33;1.60;;;;;;;;;;4330940;33;20175;-74
2021/04/06 15:00:11;;;;;;;6.90;1.50;;;;;;;;;;4329962;33;20551;-73